createdAt,value
2023-03-18T00:00:09.986Z,3.90
2023-03-18T00:02:38.149Z,3.13
2023-03-18T00:05:07.476Z,3.20
2023-03-18T00:07:36.122Z,3.33
2023-03-18T00:10:03.607Z,3.17
2023-03-18T00:12:30.151Z,2.83
2023-03-18T00:14:56.543Z,2.77
2023-03-18T00:17:23.003Z,2.60
2023-03-18T00:19:50.271Z,2.63
2023-03-18T00:22:17.202Z,2.73
2023-03-18T00:24:43.700Z,2.60
2023-03-18T00:27:10.171Z,2.90
2023-03-18T00:29:36.542Z,2.90
2023-03-18T00:32:03.374Z,2.80
2023-03-18T00:34:29.762Z,3.33
2023-03-18T00:37:00.156Z,2.97
2023-03-18T00:39:28.897Z,2.50
2023-03-18T00:41:56.880Z,2.80
2023-03-18T00:44:25.297Z,2.57
2023-03-18T00:46:52.088Z,3.17
2023-03-18T00:49:19.111Z,3.40
2023-03-18T00:51:46.281Z,3.17
2023-03-18T00:54:17.816Z,3.10
2023-03-18T00:56:44.149Z,2.63
2023-03-18T00:59:10.539Z,3.60
2023-03-18T01:01:37.785Z,3.00
2023-03-18T01:04:04.781Z,3.30
2023-03-18T01:06:33.866Z,2.80
2023-03-18T01:09:01.418Z,2.57
2023-03-18T01:11:28.837Z,3.03
2023-03-18T01:13:55.359Z,3.07
2023-03-18T01:16:22.580Z,3.10
2023-03-18T01:18:49.154Z,2.80
2023-03-18T01:21:17.005Z,2.83
2023-03-18T01:23:43.461Z,3.03
2023-03-18T01:26:10.783Z,2.97
2023-03-18T01:28:37.488Z,2.90
2023-03-18T01:31:04.589Z,2.87
2023-03-18T01:33:31.495Z,3.13
2023-03-18T01:36:00.081Z,3.13
2023-03-18T01:38:31.107Z,3.10
2023-03-18T01:40:59.524Z,3.67
2023-03-18T01:43:30.485Z,3.00
2023-03-18T01:45:59.762Z,3.57
2023-03-18T01:48:31.644Z,3.00
2023-03-18T01:51:06.274Z,3.13
2023-03-18T01:53:39.045Z,3.10
2023-03-18T01:56:06.714Z,2.90
2023-03-18T01:58:38.451Z,3.20
2023-03-18T02:01:09.876Z,3.40
2023-03-18T02:03:36.822Z,3.63
2023-03-18T02:06:03.649Z,3.50
2023-03-18T02:08:30.153Z,3.47
2023-03-18T02:10:56.695Z,3.33
2023-03-18T02:13:24.801Z,3.20
2023-03-18T02:16:01.478Z,3.30
2023-03-18T02:18:34.458Z,3.10
2023-03-18T02:21:20.657Z,3.00
2023-03-18T02:24:09.433Z,3.30
2023-03-18T02:26:59.393Z,3.33
2023-03-18T02:29:31.162Z,3.57
2023-03-18T02:32:01.904Z,3.50
2023-03-18T02:34:29.899Z,3.63
2023-03-18T02:36:57.422Z,4.07
2023-03-18T02:39:23.958Z,3.73
2023-03-18T02:41:50.612Z,3.70
2023-03-18T02:44:19.270Z,3.80
2023-03-18T02:46:59.279Z,3.60
2023-03-18T02:49:27.518Z,4.00
2023-03-18T02:51:54.925Z,3.90
2023-03-18T02:54:24.084Z,3.90
2023-03-18T02:56:51.369Z,3.27
2023-03-18T02:59:19.025Z,3.90
2023-03-18T03:01:48.326Z,3.37
2023-03-18T03:04:16.605Z,3.73
2023-03-18T03:06:44.008Z,3.60
2023-03-18T03:09:13.536Z,4.07
2023-03-18T03:11:40.831Z,4.10
2023-03-18T03:14:08.396Z,3.73
2023-03-18T03:16:36.092Z,4.00
2023-03-18T03:19:02.709Z,3.70
2023-03-18T03:21:29.150Z,4.40
2023-03-18T03:23:55.551Z,4.50
2023-03-18T03:26:22.172Z,3.80
2023-03-18T03:28:48.638Z,3.90
2023-03-18T03:31:15.426Z,4.10
2023-03-18T03:33:43.626Z,4.33
2023-03-18T03:36:13.430Z,4.40
2023-03-18T03:38:41.595Z,3.87
2023-03-18T03:41:10.302Z,4.50
2023-03-18T03:43:38.760Z,3.93
2023-03-18T03:46:05.859Z,3.67
2023-03-18T03:48:32.430Z,4.70
2023-03-18T03:50:58.867Z,4.10
2023-03-18T03:53:25.312Z,4.23
2023-03-18T03:55:52.367Z,4.37
2023-03-18T03:58:18.784Z,3.90
2023-03-18T04:00:45.140Z,4.20
2023-03-18T04:03:11.826Z,4.70
2023-03-18T04:05:38.303Z,4.47
2023-03-18T04:08:05.115Z,3.90
2023-03-18T04:10:32.098Z,4.03
2023-03-18T04:12:58.707Z,3.87
2023-03-18T04:15:25.718Z,4.50
2023-03-18T04:17:52.092Z,4.33
2023-03-18T04:20:18.926Z,4.40
2023-03-18T04:22:45.676Z,4.80
2023-03-18T04:25:12.582Z,4.20
2023-03-18T04:27:39.134Z,4.33
2023-03-18T04:30:08.125Z,4.43
2023-03-18T04:32:34.503Z,4.37
2023-03-18T04:35:00.877Z,4.40
2023-03-18T04:37:27.268Z,4.73
2023-03-18T04:39:53.818Z,4.43
2023-03-18T04:42:20.159Z,4.53
2023-03-18T04:44:46.528Z,4.33
2023-03-18T04:47:13.727Z,4.07
2023-03-18T04:49:40.498Z,4.30
2023-03-18T04:52:07.498Z,4.10
2023-03-18T04:54:33.960Z,4.10
2023-03-18T04:57:00.697Z,4.60
2023-03-18T04:59:27.171Z,4.73
2023-03-18T05:01:53.992Z,4.07
2023-03-18T05:04:20.383Z,4.10
2023-03-18T05:06:47.228Z,3.97
2023-03-18T05:09:13.612Z,4.40
2023-03-18T05:11:39.923Z,4.13
2023-03-18T05:14:06.679Z,4.10
2023-03-18T05:16:33.372Z,5.00
2023-03-18T05:18:59.782Z,4.00
2023-03-18T05:21:26.264Z,4.13
2023-03-18T05:23:52.641Z,4.83
2023-03-18T05:26:19.048Z,4.43
2023-03-18T05:28:45.472Z,4.10
2023-03-18T05:31:13.024Z,4.50
2023-03-18T05:33:39.415Z,5.00
2023-03-18T05:36:06.171Z,4.27
2023-03-18T05:38:32.643Z,4.47
2023-03-18T05:40:59.030Z,4.30
2023-03-18T05:43:26.187Z,4.80
2023-03-18T05:45:52.660Z,4.47
2023-03-18T05:48:19.202Z,5.07
2023-03-18T05:50:46.720Z,4.40
2023-03-18T05:53:13.320Z,4.80
2023-03-18T05:55:40.408Z,4.50
2023-03-18T05:58:07.295Z,4.57
2023-03-18T06:00:34.429Z,4.53
2023-03-18T06:03:01.765Z,4.70
2023-03-18T06:05:29.615Z,4.70
2023-03-18T06:07:56.917Z,5.17
2023-03-18T06:10:25.378Z,4.33
2023-03-18T06:12:52.635Z,4.60
2023-03-18T06:15:19.480Z,4.73
2023-03-18T06:17:46.341Z,4.47
2023-03-18T06:20:14.731Z,4.87
2023-03-18T06:22:41.938Z,4.83
2023-03-18T06:25:08.742Z,4.50
2023-03-18T06:27:35.578Z,4.23
2023-03-18T06:30:04.504Z,4.63
2023-03-18T06:32:31.215Z,4.70
2023-03-18T06:34:57.680Z,4.47
2023-03-18T06:37:24.466Z,4.23
2023-03-18T06:39:51.181Z,4.40
2023-03-18T06:42:17.817Z,4.40
2023-03-18T06:44:50.389Z,4.40
2023-03-18T06:47:19.080Z,4.10
2023-03-18T06:49:45.636Z,3.57
2023-03-18T06:52:12.837Z,3.97
2023-03-18T06:54:39.289Z,4.17
2023-03-18T06:57:06.401Z,3.70
2023-03-18T06:59:33.066Z,3.90
2023-03-18T07:01:59.641Z,4.20
2023-03-18T07:04:26.248Z,4.00
2023-03-18T07:06:52.633Z,4.20
2023-03-18T07:09:19.359Z,4.03
2023-03-18T07:11:46.884Z,3.50
2023-03-18T07:14:14.544Z,3.43
2023-03-18T07:16:41.239Z,3.33
2023-03-18T07:19:07.707Z,3.73
2023-03-18T07:21:35.315Z,3.80
2023-03-18T07:24:03.876Z,3.43
2023-03-18T07:26:30.439Z,3.70
2023-03-18T07:28:56.910Z,3.40
2023-03-18T07:31:23.912Z,4.00
2023-03-18T07:33:50.546Z,3.93
2023-03-18T07:36:17.587Z,4.00
2023-03-18T07:38:43.983Z,3.63
2023-03-18T07:41:11.163Z,3.57
2023-03-18T07:43:38.568Z,3.50
2023-03-18T07:46:05.653Z,3.60
2023-03-18T07:48:34.172Z,3.60
2023-03-18T07:51:01.188Z,3.80
2023-03-18T07:53:28.617Z,3.23
2023-03-18T07:55:55.533Z,3.93
2023-03-18T07:58:22.229Z,3.97
2023-03-18T08:00:49.539Z,3.40
2023-03-18T08:03:16.537Z,3.80
2023-03-18T08:05:42.836Z,3.60
2023-03-18T08:08:09.798Z,3.60
2023-03-18T08:10:36.636Z,3.60
2023-03-18T08:13:03.913Z,3.57
2023-03-18T08:15:30.677Z,3.27
2023-03-18T08:17:57.457Z,3.57
2023-03-18T08:20:23.892Z,3.60
2023-03-18T08:22:50.765Z,4.07
2023-03-18T08:25:17.281Z,4.50
2023-03-18T08:27:43.735Z,3.83
2023-03-18T08:30:11.460Z,3.50
2023-03-18T08:32:38.420Z,3.30
2023-03-18T08:35:05.485Z,3.20
2023-03-18T08:37:32.561Z,3.33
2023-03-18T08:39:59.032Z,3.47
2023-03-18T08:42:25.482Z,3.13
2023-03-18T08:44:51.796Z,3.60
2023-03-18T08:47:18.179Z,3.10
2023-03-18T08:49:44.631Z,3.10
2023-03-18T08:52:11.703Z,3.53
2023-03-18T08:54:38.610Z,3.00
2023-03-18T08:57:05.093Z,3.20
2023-03-18T08:59:31.411Z,3.27
2023-03-18T09:01:57.760Z,2.93
2023-03-18T09:04:25.742Z,3.10
2023-03-18T09:06:52.061Z,3.20
2023-03-18T09:09:18.598Z,3.50
2023-03-18T09:11:46.353Z,3.67
2023-03-18T09:14:13.328Z,2.97
2023-03-18T09:16:40.374Z,3.13
2023-03-18T09:19:07.129Z,3.13
2023-03-18T09:21:33.474Z,3.17
2023-03-18T09:23:59.837Z,3.30
2023-03-18T09:26:26.155Z,3.03
2023-03-18T09:28:52.550Z,3.00
2023-03-18T09:31:19.280Z,2.97
2023-03-18T09:33:46.968Z,3.13
2023-03-18T09:36:13.917Z,3.03
2023-03-18T09:38:41.259Z,3.17
2023-03-18T09:41:29.780Z,3.23
2023-03-18T09:44:10.584Z,2.77
2023-03-18T09:47:18.604Z,2.47
2023-03-18T09:49:59.315Z,2.57
2023-03-18T09:52:35.870Z,2.60
2023-03-18T09:55:11.563Z,3.13
2023-03-18T09:57:46.970Z,2.60
2023-03-18T10:00:24.310Z,2.43
2023-03-18T10:02:55.478Z,2.80
2023-03-18T10:05:50.959Z,2.97
2023-03-18T10:08:43.373Z,3.00
2023-03-18T10:12:01.283Z,3.13
2023-03-18T10:14:39.574Z,2.53
2023-03-18T10:17:18.140Z,2.80
2023-03-18T10:19:48.708Z,2.70
2023-03-18T10:22:40.504Z,2.80
2023-03-18T10:25:27.712Z,2.83
2023-03-18T10:28:10.432Z,2.57
2023-03-18T10:30:45.895Z,2.50
2023-03-18T10:33:31.071Z,2.73
2023-03-18T10:36:18.605Z,2.40
2023-03-18T10:38:48.577Z,2.47
2023-03-18T10:41:32.535Z,2.67
2023-03-18T10:44:02.908Z,2.90
2023-03-18T10:46:30.445Z,2.67
2023-03-18T10:49:11.677Z,2.53
2023-03-18T10:51:54.235Z,2.43
2023-03-18T10:54:32.544Z,2.30
2023-03-18T10:56:59.006Z,2.53
2023-03-18T10:59:28.526Z,2.70
2023-03-18T11:02:02.363Z,2.43
2023-03-18T11:04:31.930Z,2.50
2023-03-18T11:07:02.758Z,2.30
2023-03-18T11:09:39.408Z,2.70
2023-03-18T11:12:19.355Z,2.20
2023-03-18T11:14:50.264Z,2.00
2023-03-18T11:17:28.188Z,2.10
2023-03-18T11:20:07.591Z,2.20
2023-03-18T11:22:36.594Z,2.10
2023-03-18T11:25:18.241Z,2.20
2023-03-18T11:27:51.197Z,1.80
2023-03-18T11:30:34.166Z,2.17
2023-03-18T11:33:10.771Z,2.17
2023-03-18T11:35:51.027Z,2.00
2023-03-18T11:38:18.710Z,1.90
2023-03-18T11:40:46.294Z,1.70
2023-03-18T11:43:22.391Z,2.00
2023-03-18T11:45:52.179Z,1.60
2023-03-18T11:48:41.070Z,1.73
2023-03-18T11:51:17.466Z,1.57
2023-03-18T11:54:02.855Z,1.60
2023-03-18T11:56:42.468Z,1.50
2023-03-18T11:59:44.379Z,1.70
2023-03-18T12:02:45.119Z,1.67
2023-03-18T12:05:33.674Z,1.90
2023-03-18T12:08:12.676Z,1.50
2023-03-18T12:10:57.791Z,1.87
2023-03-18T12:13:37.604Z,1.97
2023-03-18T12:16:09.837Z,1.90
2023-03-18T12:19:00.706Z,1.70
2023-03-18T12:21:45.796Z,1.57
2023-03-18T12:24:54.800Z,1.73
2023-03-18T12:27:41.651Z,1.53
2023-03-18T12:30:15.290Z,1.53
2023-03-18T12:33:04.183Z,1.70
2023-03-18T12:35:46.589Z,1.90
2023-03-18T12:38:35.574Z,1.80
2023-03-18T12:41:07.831Z,1.70
2023-03-18T12:43:59.078Z,2.03
2023-03-18T12:46:37.249Z,1.70
2023-03-18T12:49:36.280Z,1.70
2023-03-18T12:52:11.211Z,1.77
2023-03-18T12:54:49.906Z,1.87
2023-03-18T12:57:39.046Z,1.40
2023-03-18T13:00:18.803Z,1.47
2023-03-18T13:02:52.875Z,1.20
2023-03-18T13:05:48.960Z,1.50
2023-03-18T13:08:39.246Z,1.63
2023-03-18T13:11:29.052Z,1.67
2023-03-18T13:14:03.488Z,1.60
2023-03-18T13:16:32.695Z,1.73
2023-03-18T13:18:59.616Z,1.90
2023-03-18T13:21:30.881Z,2.10
2023-03-18T13:24:38.893Z,1.80
2023-03-18T13:27:28.649Z,1.40
2023-03-18T13:30:20.217Z,1.33
2023-03-18T13:33:04.675Z,1.83
2023-03-18T13:35:46.152Z,1.30
2023-03-18T13:38:43.240Z,1.40
2023-03-18T13:41:32.627Z,1.83
2023-03-18T13:44:04.145Z,3.50
2023-03-18T13:46:32.994Z,1.60
2023-03-18T13:49:01.806Z,1.43
2023-03-18T13:51:28.739Z,1.33
2023-03-18T13:54:02.078Z,1.93
2023-03-18T13:56:43.906Z,1.47
2023-03-18T13:59:35.440Z,1.87
2023-03-18T14:02:23.724Z,1.60
2023-03-18T14:04:51.647Z,1.63
2023-03-18T14:07:20.237Z,1.37
2023-03-18T14:09:49.414Z,1.90
2023-03-18T14:12:20.533Z,1.70
2023-03-18T14:15:02.416Z,1.63
2023-03-18T14:17:38.167Z,2.13
2023-03-18T14:20:27.107Z,1.80
2023-03-18T14:22:56.079Z,1.90
2023-03-18T14:25:27.225Z,2.37
2023-03-18T14:27:59.261Z,2.20
2023-03-18T14:30:32.070Z,1.80
2023-03-18T14:33:01.158Z,1.87
2023-03-18T14:35:49.722Z,2.13
2023-03-18T14:38:24.708Z,2.27
2023-03-18T14:40:54.967Z,2.10
2023-03-18T14:43:29.972Z,1.90
2023-03-18T14:45:58.888Z,2.10
2023-03-18T14:48:33.966Z,2.30
2023-03-18T14:51:20.101Z,2.37
2023-03-18T14:53:52.772Z,2.30
2023-03-18T14:56:25.116Z,2.10
2023-03-18T14:58:56.655Z,2.00
2023-03-18T15:01:28.062Z,2.77
2023-03-18T15:03:57.380Z,1.97
2023-03-18T15:06:26.881Z,2.20
2023-03-18T15:09:00.761Z,2.30
2023-03-18T15:11:28.096Z,2.33
2023-03-18T15:13:56.867Z,2.13
2023-03-18T15:16:25.329Z,2.20
2023-03-18T15:18:54.759Z,2.33
2023-03-18T15:21:26.114Z,2.30
2023-03-18T15:23:56.492Z,2.33
2023-03-18T15:26:37.828Z,2.23
2023-03-18T15:29:33.721Z,2.40
2023-03-18T15:32:23.998Z,2.30
2023-03-18T15:35:05.888Z,2.30
2023-03-18T15:37:40.551Z,2.17
2023-03-18T15:40:30.190Z,2.00
2023-03-18T15:43:03.246Z,2.40
2023-03-18T15:45:30.546Z,2.37
2023-03-18T15:47:58.406Z,2.40
2023-03-18T15:50:30.594Z,2.00
2023-03-18T15:53:03.118Z,2.20
2023-03-18T15:55:36.482Z,2.30
2023-03-18T15:58:15.525Z,2.27
2023-03-18T16:00:42.149Z,2.43
2023-03-18T16:03:18.982Z,2.30
2023-03-18T16:05:45.380Z,2.50
2023-03-18T16:08:13.993Z,2.93
2023-03-18T16:10:41.387Z,2.70
2023-03-18T16:13:15.842Z,2.50
2023-03-18T16:15:42.452Z,2.70
2023-03-18T16:18:10.208Z,2.50
2023-03-18T16:20:36.706Z,3.27
2023-03-18T16:23:03.052Z,3.23
2023-03-18T16:25:29.519Z,3.10
2023-03-18T16:27:58.710Z,2.73
2023-03-18T16:30:30.820Z,2.70
2023-03-18T16:32:58.132Z,2.73
2023-03-18T16:35:33.831Z,2.20
2023-03-18T16:38:01.163Z,2.33
2023-03-18T16:40:30.003Z,2.73
2023-03-18T16:42:56.531Z,2.33
2023-03-18T16:45:31.301Z,2.80
2023-03-18T16:48:01.723Z,2.40
2023-03-18T16:50:33.278Z,2.97
2023-03-18T16:52:59.736Z,2.60
2023-03-18T16:55:26.904Z,2.50
2023-03-18T16:57:58.107Z,2.13
2023-03-18T17:00:29.969Z,1.90
2023-03-18T17:02:56.326Z,2.17
2023-03-18T17:05:22.727Z,1.87
2023-03-18T17:07:50.378Z,2.00
2023-03-18T17:10:20.425Z,1.73
2023-03-18T17:12:59.438Z,1.93
2023-03-18T17:15:31.743Z,2.77
2023-03-18T17:17:59.756Z,2.30
2023-03-18T17:20:29.137Z,2.70
2023-03-18T17:22:55.797Z,2.13
2023-03-18T17:25:25.726Z,2.20
2023-03-18T17:27:55.870Z,2.60
2023-03-18T17:30:24.030Z,2.03
2023-03-18T17:32:50.900Z,2.37
2023-03-18T17:35:22.090Z,2.27
2023-03-18T17:37:49.101Z,1.70
2023-03-18T17:40:18.346Z,2.00
2023-03-18T17:42:45.648Z,2.30
2023-03-18T17:45:32.852Z,1.80
2023-03-18T17:48:26.387Z,1.90
2023-03-18T17:50:59.651Z,2.03
2023-03-18T17:53:37.124Z,2.33
2023-03-18T17:56:08.450Z,2.30
2023-03-18T17:58:35.277Z,2.40
2023-03-18T18:01:15.289Z,2.23
2023-03-18T18:03:41.859Z,2.50
2023-03-18T18:06:15.763Z,2.00
2023-03-18T18:08:42.901Z,2.40
2023-03-18T18:11:21.638Z,2.43
2023-03-18T18:13:49.074Z,2.13
2023-03-18T18:16:15.832Z,2.47
2023-03-18T18:18:42.676Z,2.50
2023-03-18T18:21:18.840Z,2.50
2023-03-18T18:23:45.801Z,3.00
2023-03-18T18:26:17.363Z,4.70
2023-03-18T18:28:48.020Z,3.27
2023-03-18T18:31:17.641Z,3.37
2023-03-18T18:33:45.582Z,2.67
2023-03-18T18:36:13.737Z,2.90
2023-03-18T18:38:40.430Z,3.07
2023-03-18T18:41:07.280Z,3.50
2023-03-18T18:43:33.692Z,3.17
2023-03-18T18:46:00.398Z,4.17
2023-03-18T18:48:32.733Z,3.60
2023-03-18T18:51:00.333Z,3.57
2023-03-18T18:53:32.132Z,4.57
2023-03-18T18:56:01.028Z,3.03
2023-03-18T18:58:30.290Z,3.50
2023-03-18T19:00:57.841Z,2.80
2023-03-18T19:03:29.009Z,2.63
2023-03-18T19:05:55.640Z,2.47
2023-03-18T19:08:26.643Z,7.67
2023-03-18T19:10:58.075Z,2.97
2023-03-18T19:13:25.772Z,3.70
2023-03-18T19:15:55.621Z,3.03
2023-03-18T19:18:24.841Z,4.13
2023-03-18T19:20:53.113Z,3.60
2023-03-18T19:23:26.593Z,3.00
2023-03-18T19:25:53.404Z,4.60
2023-03-18T19:28:55.138Z,3.70
2023-03-18T19:31:26.697Z,3.10
2023-03-18T19:33:53.839Z,2.77
2023-03-18T19:36:27.470Z,2.90
2023-03-18T19:38:55.552Z,2.60
2023-03-18T19:41:22.115Z,3.10
2023-03-18T19:43:48.855Z,2.70
2023-03-18T19:46:23.711Z,2.70
2023-03-18T19:48:50.681Z,2.63
2023-03-18T19:51:17.100Z,2.47
2023-03-18T19:53:45.260Z,2.70
2023-03-18T19:56:26.542Z,2.60
2023-03-18T19:58:58.028Z,3.20
2023-03-18T20:01:27.068Z,3.90
2023-03-18T20:03:58.113Z,4.17
2023-03-18T20:06:25.622Z,4.83
2023-03-18T20:08:52.127Z,5.23
2023-03-18T20:11:20.976Z,5.70
2023-03-18T20:13:48.148Z,5.63
2023-03-18T20:16:16.259Z,5.93
2023-03-18T20:18:42.756Z,4.87
2023-03-18T20:21:22.080Z,5.00
2023-03-18T20:23:49.832Z,5.07
2023-03-18T20:26:16.455Z,4.97
2023-03-18T20:28:45.437Z,4.67
2023-03-18T20:31:12.024Z,4.77
2023-03-18T20:33:38.416Z,4.60
2023-03-18T20:36:06.095Z,4.70
2023-03-18T20:38:35.283Z,4.57
2023-03-18T20:41:02.111Z,4.90
2023-03-18T20:43:29.257Z,4.80
2023-03-18T20:45:57.386Z,4.70
2023-03-18T20:48:23.944Z,4.23
2023-03-18T20:50:51.466Z,3.87
2023-03-18T20:53:21.872Z,6.10
2023-03-18T20:55:49.491Z,5.53
2023-03-18T20:58:21.427Z,5.93
2023-03-18T21:00:48.210Z,6.23
2023-03-18T21:03:24.025Z,5.20
2023-03-18T21:05:52.206Z,5.57
2023-03-18T21:08:19.180Z,5.90
2023-03-18T21:10:46.084Z,5.33
2023-03-18T21:13:32.033Z,5.87
2023-03-18T21:16:00.086Z,5.00
2023-03-18T21:18:26.813Z,4.97
2023-03-18T21:20:53.828Z,5.47
2023-03-18T21:23:28.630Z,4.93
2023-03-18T21:25:56.120Z,4.80
2023-03-18T21:28:25.499Z,4.97
2023-03-18T21:30:56.230Z,4.47
2023-03-18T21:33:31.236Z,4.60
2023-03-18T21:35:57.827Z,4.63
2023-03-18T21:38:31.768Z,4.50
2023-03-18T21:40:59.104Z,4.50
2023-03-18T21:43:32.753Z,5.23
2023-03-18T21:46:00.347Z,4.47
2023-03-18T21:48:27.195Z,4.13
2023-03-18T21:50:54.011Z,4.30
2023-03-18T21:53:23.082Z,4.50
2023-03-18T21:55:50.667Z,4.43
2023-03-18T21:58:19.265Z,3.83
2023-03-18T22:00:49.369Z,3.60
2023-03-18T22:03:16.919Z,3.47
2023-03-18T22:05:43.820Z,3.77
2023-03-18T22:08:10.326Z,3.50
2023-03-18T22:10:36.869Z,3.67
2023-03-18T22:13:18.184Z,3.10
2023-03-18T22:15:47.063Z,3.33
2023-03-18T22:18:14.758Z,3.07
2023-03-18T22:20:41.866Z,3.33
2023-03-18T22:23:27.262Z,3.60
2023-03-18T22:25:56.476Z,3.07
2023-03-18T22:28:24.741Z,3.13
2023-03-18T22:30:52.717Z,3.67
2023-03-18T22:33:31.749Z,3.90
2023-03-18T22:35:58.270Z,3.60
2023-03-18T22:38:25.772Z,3.10
2023-03-18T22:40:55.380Z,3.57
2023-03-18T22:43:34.583Z,3.70
2023-03-18T22:46:05.161Z,3.10
2023-03-18T22:48:32.175Z,3.03
2023-03-18T22:51:00.100Z,3.10
2023-03-18T22:53:39.532Z,3.07
2023-03-18T22:56:10.041Z,2.80
2023-03-18T22:58:36.462Z,2.93
2023-03-18T23:01:04.240Z,3.43
2023-03-18T23:03:36.807Z,3.00
2023-03-18T23:06:03.944Z,3.20
2023-03-18T23:08:31.242Z,3.30
2023-03-18T23:11:00.867Z,3.33
2023-03-18T23:13:36.272Z,3.43
2023-03-18T23:16:05.601Z,3.40
2023-03-18T23:18:32.422Z,3.50
2023-03-18T23:20:59.160Z,2.87
2023-03-18T23:23:26.018Z,3.10
2023-03-18T23:25:52.691Z,3.67
2023-03-18T23:28:19.458Z,3.60
2023-03-18T23:30:51.556Z,3.50
2023-03-18T23:33:18.957Z,3.27
2023-03-18T23:35:46.130Z,3.47
2023-03-18T23:38:12.565Z,3.70
2023-03-18T23:40:38.970Z,3.67
2023-03-18T23:43:06.567Z,3.47
2023-03-18T23:45:33.420Z,3.60
2023-03-18T23:47:59.979Z,3.27
2023-03-18T23:50:26.277Z,3.50
2023-03-18T23:52:52.615Z,3.50
2023-03-18T23:55:33.597Z,3.57
2023-03-18T23:58:00.786Z,3.67
